Time;durP1;ratioP1;P1;durP2;ratioP2;P2;SDS_P1;SDS_P2;PMS_P1;PMS_P2;Temp;Humidity;BMP_temperature;BMP_pressure;BME280_temperature;BME280_humidity;BME280_pressure;Samples;Min_cycle;Max_cycle;Signal;HPM_P1;HPM_P2
2023/04/17 00:02:05;;;;;;;;;;;8.50;99.90;;;;;;5004810;28;19906;-72
2023/04/17 00:04:31;;;;;;;;;;;8.60;99.90;;;;;;5011927;28;21099;-72
2023/04/17 00:06:58;;;;;;;;;;;8.60;99.90;;;;;;5004217;28;20267;-71
2023/04/17 00:09:24;;;;;;;;;;;8.60;99.90;;;;;;5005250;28;19956;-72
2023/04/17 00:11:50;;;;;;;;;;;8.60;99.90;;;;;;4992342;28;19905;-72
2023/04/17 00:14:17;;;;;;;;;;;8.60;99.90;;;;;;4998137;28;19910;-72
2023/04/17 00:16:42;;;;;;;;;;;8.60;99.90;;;;;;5009601;28;19910;-72
2023/04/17 00:19:09;;;;;;;;;;;8.60;99.90;;;;;;5009453;28;20400;-72
2023/04/17 00:21:35;;;;;;;;;;;8.60;99.90;;;;;;5005567;28;19968;-72
2023/04/17 00:24:00;;;;;;;;;;;8.60;99.90;;;;;;4994263;28;19914;-72
2023/04/17 00:26:26;;;;;;;;;;;8.50;99.90;;;;;;5003422;28;19921;-72
2023/04/17 00:28:51;;;;;;;;;;;8.50;99.90;;;;;;5007553;28;19947;-72
2023/04/17 00:31:17;;;;;;;;;;;8.40;99.90;;;;;;5010914;28;19955;-72
2023/04/17 00:33:43;;;;;;;;;;;8.50;99.90;;;;;;4990915;28;19917;-72
2023/04/17 00:36:12;;;;;;;;;;;8.50;99.90;;;;;;4991614;28;19947;-72
2023/04/17 00:38:38;;;;;;;;;;;8.60;99.90;;;;;;5011815;28;20003;-72
2023/04/17 00:41:03;;;;;;;;;;;8.60;99.90;;;;;;5006249;28;20000;-72
2023/04/17 00:43:29;;;;;;;;;;;8.60;99.90;;;;;;4987096;28;20455;-73
2023/04/17 00:45:55;;;;;;;;;;;8.60;99.90;;;;;;5007051;28;19959;-72
2023/04/17 00:48:22;;;;;;;;;;;8.60;99.90;;;;;;5005736;28;19909;-72
2023/04/17 00:50:48;;;;;;;;;;;8.60;99.90;;;;;;4985919;28;20509;-72
2023/04/17 00:53:14;;;;;;;;;;;8.70;99.90;;;;;;5013785;28;19909;-72
2023/04/17 00:55:41;;;;;;;;;;;8.70;99.90;;;;;;5007877;28;20003;-72
2023/04/17 00:58:07;;;;;;;;;;;8.60;99.90;;;;;;5006866;28;19915;-72
2023/04/17 01:00:34;;;;;;;;;;;8.60;99.90;;;;;;4989969;28;19913;-72
2023/04/17 01:03:00;;;;;;;;;;;8.60;99.90;;;;;;5006554;28;20544;-72
2023/04/17 01:05:26;;;;;;;;;;;8.60;99.90;;;;;;4992540;28;19910;-72
2023/04/17 01:07:53;;;;;;;;;;;8.60;99.90;;;;;;4986842;28;19913;-72
2023/04/17 01:10:19;;;;;;;;;;;8.60;99.90;;;;;;4989307;28;19916;-72
2023/04/17 01:12:47;;;;;;;;;;;8.70;99.90;;;;;;5011984;28;19905;-72
2023/04/17 01:15:15;;;;;;;;;;;8.60;99.90;;;;;;5005429;28;19909;-72
2023/04/17 01:17:40;;;;;;;;;;;8.70;99.90;;;;;;4988969;28;20312;-72
2023/04/17 01:20:09;;;;;;;;;;;8.60;99.90;;;;;;5007664;28;19958;-72
2023/04/17 01:22:36;;;;;;;;;;;8.70;99.90;;;;;;5009850;28;19913;-72
2023/04/17 01:25:01;;;;;;;;;;;8.70;99.90;;;;;;5003704;28;19909;-73
2023/04/17 01:27:27;;;;;;;;;;;8.70;99.90;;;;;;5005944;28;19967;-72
2023/04/17 01:29:52;;;;;;;;;;;8.70;99.90;;;;;;4988522;28;19920;-72
2023/04/17 01:32:19;;;;;;;;;;;8.60;99.90;;;;;;5009359;28;20027;-72
2023/04/17 01:34:46;;;;;;;;;;;8.60;99.90;;;;;;4993338;28;19905;-72
2023/04/17 01:37:11;;;;;;;;;;;8.60;99.90;;;;;;4987590;28;19909;-72
2023/04/17 01:39:37;;;;;;;;;;;8.60;99.90;;;;;;5002718;28;19955;-72
2023/04/17 01:42:02;;;;;;;;;;;8.60;99.90;;;;;;5009717;28;19956;-72
2023/04/17 01:44:28;;;;;;;;;;;8.50;99.90;;;;;;5005441;28;19906;-72
2023/04/17 01:46:55;;;;;;;;;;;8.50;99.90;;;;;;5005535;28;19979;-72
2023/04/17 01:49:21;;;;;;;;;;;8.50;99.90;;;;;;5007432;28;20544;-72
2023/04/17 01:51:47;;;;;;;;;;;8.40;99.90;;;;;;5010347;28;20001;-72
2023/04/17 01:54:14;;;;;;;;;;;8.40;99.90;;;;;;5005594;28;19943;-72
2023/04/17 01:56:40;;;;;;;;;;;8.40;99.90;;;;;;5009556;28;20328;-72
2023/04/17 01:59:05;;;;;;;;;;;8.30;99.90;;;;;;4990219;28;19913;-72
2023/04/17 02:01:31;;;;;;;;;;;8.40;99.90;;;;;;5008299;28;19910;-72
2023/04/17 02:03:57;;;;;;;;;;;8.40;99.90;;;;;;5003454;28;19909;-72
2023/04/17 02:06:24;;;;;;;;;;;8.40;99.90;;;;;;4988376;28;19913;-72
2023/04/17 02:08:49;;;;;;;;;;;8.40;99.90;;;;;;4986487;28;19917;-72
2023/04/17 02:11:15;;;;;;;;;;;8.40;99.90;;;;;;5004819;28;19905;-72
2023/04/17 02:13:40;;;;;;;;;;;8.50;99.90;;;;;;5006629;28;19909;-72
2023/04/17 02:16:08;;;;;;;;;;;8.50;99.90;;;;;;5002416;28;19916;-71
2023/04/17 02:18:34;;;;;;;;;;;8.50;99.90;;;;;;5007828;28;19913;-72
2023/04/17 02:20:59;;;;;;;;;;;8.50;99.90;;;;;;5008216;28;19916;-72
2023/04/17 02:23:25;;;;;;;;;;;8.50;99.90;;;;;;4988447;28;19956;-72
2023/04/17 02:25:50;;;;;;;;;;;8.60;99.90;;;;;;5004192;28;20470;-72
2023/04/17 02:28:16;;;;;;;;;;;8.60;99.90;;;;;;5004480;28;19914;-72
2023/04/17 02:30:44;;;;;;;;;;;8.60;99.90;;;;;;5003151;28;19970;-72
2023/04/17 02:33:10;;;;;;;;;;;8.60;99.90;;;;;;5002867;28;19975;-72
2023/04/17 02:35:36;;;;;;;;;;;8.60;99.90;;;;;;5005028;28;19948;-72
2023/04/17 02:38:01;;;;;;;;;;;8.60;99.90;;;;;;4991708;28;20013;-72
2023/04/17 02:40:27;;;;;;;;;;;8.60;99.90;;;;;;5012283;28;19916;-71
2023/04/17 02:42:53;;;;;;;;;;;8.60;99.90;;;;;;5005187;28;19920;-72
2023/04/17 02:45:19;;;;;;;;;;;8.60;99.90;;;;;;4990911;28;19909;-72
2023/04/17 02:47:45;;;;;;;;;;;8.60;99.90;;;;;;5006468;28;19913;-72
2023/04/17 02:50:10;;;;;;;;;;;8.60;99.90;;;;;;5010185;28;20314;-72
2023/04/17 02:52:36;;;;;;;;;;;8.60;99.90;;;;;;5010276;28;20402;-72
2023/04/17 02:55:01;;;;;;;;;;;8.60;99.90;;;;;;5007237;28;20287;-72
2023/04/17 02:57:27;;;;;;;;;;;8.60;99.90;;;;;;5004390;28;20004;-71
2023/04/17 02:59:53;;;;;;;;;;;8.60;99.90;;;;;;5004342;28;19917;-71
2023/04/17 03:02:21;;;;;;;;;;;8.60;99.90;;;;;;5010187;28;19912;-72
2023/04/17 03:04:50;;;;;;;;;;;8.60;99.90;;;;;;5008515;28;19936;-71
2023/04/17 03:07:20;;;;;;;;;;;8.60;99.90;;;;;;4991781;28;19920;-72
2023/04/17 03:09:46;;;;;;;;;;;8.50;99.90;;;;;;5007761;28;19920;-72
2023/04/17 03:12:13;;;;;;;;;;;8.50;99.90;;;;;;5008175;28;19905;-71
2023/04/17 03:14:39;;;;;;;;;;;8.50;99.90;;;;;;5000713;28;19909;-72
2023/04/17 03:17:05;;;;;;;;;;;8.50;99.90;;;;;;4993056;28;19909;-72
2023/04/17 03:19:31;;;;;;;;;;;8.50;99.90;;;;;;5008218;28;19972;-72
2023/04/17 03:21:56;;;;;;;;;;;8.50;99.90;;;;;;5009323;28;20427;-72
2023/04/17 03:24:24;;;;;;;;;;;8.50;99.90;;;;;;4988365;28;19919;-72
2023/04/17 03:26:50;;;;;;;;;;;8.40;99.90;;;;;;5012663;28;20028;-72
2023/04/17 03:29:15;;;;;;;;;;;8.50;99.90;;;;;;4989266;28;20716;-72
2023/04/17 03:31:41;;;;;;;;;;;8.50;99.90;;;;;;5015095;28;19913;-71
2023/04/17 03:34:06;;;;;;;;;;;8.50;99.90;;;;;;5003257;28;19944;-72
2023/04/17 03:36:32;;;;;;;;;;;8.50;99.90;;;;;;5011314;28;19916;-72
2023/04/17 03:38:57;;;;;;;;;;;8.40;99.90;;;;;;4990867;28;19921;-72
2023/04/17 03:41:24;;;;;;;;;;;8.40;99.90;;;;;;5012236;28;19910;-72
2023/04/17 03:43:50;;;;;;;;;;;8.40;99.90;;;;;;5008994;28;19975;-72
2023/04/17 03:46:16;;;;;;;;;;;8.40;99.90;;;;;;5008031;28;20506;-72
2023/04/17 03:48:41;;;;;;;;;;;8.40;99.90;;;;;;5007827;28;20251;-72
2023/04/17 03:51:07;;;;;;;;;;;8.40;99.90;;;;;;5010963;28;19906;-72
2023/04/17 03:53:32;;;;;;;;;;;8.40;99.90;;;;;;5011552;28;19913;-72
2023/04/17 03:55:58;;;;;;;;;;;8.30;99.90;;;;;;5003556;28;19905;-72
2023/04/17 03:58:23;;;;;;;;;;;8.30;99.90;;;;;;5002945;28;19971;-72
2023/04/17 04:00:54;;;;;;;;;;;8.40;99.90;;;;;;4990568;28;19916;-72
2023/04/17 04:03:20;;;;;;;;;;;8.40;99.90;;;;;;5007416;28;19906;-72
2023/04/17 04:05:46;;;;;;;;;;;8.40;99.90;;;;;;4993320;28;19940;-72
2023/04/17 04:08:12;;;;;;;;;;;8.40;99.90;;;;;;4995601;28;19956;-72
2023/04/17 04:10:37;;;;;;;;;;;8.40;99.90;;;;;;4993736;28;20375;-72
2023/04/17 04:13:03;;;;;;;;;;;8.40;99.90;;;;;;4989246;28;19913;-72
2023/04/17 04:15:30;;;;;;;;;;;8.40;99.90;;;;;;5009059;28;19913;-73
2023/04/17 04:17:55;;;;;;;;;;;8.50;99.90;;;;;;4995230;28;19906;-71
2023/04/17 04:20:22;;;;;;;;;;;8.50;99.90;;;;;;5005723;28;19925;-72
2023/04/17 04:22:47;;;;;;;;;;;8.60;99.90;;;;;;4986658;28;20630;-72
2023/04/17 04:25:14;;;;;;;;;;;8.60;99.90;;;;;;5008761;28;19909;-73
2023/04/17 04:27:48;;;;;;;;;;;8.60;99.90;;;;;;4985400;28;19996;-73
2023/04/17 04:30:17;;;;;;;;;;;8.70;99.90;;;;;;5003340;28;20012;-73
2023/04/17 04:32:46;;;;;;;;;;;8.70;99.90;;;;;;5009403;28;19909;-73
2023/04/17 04:35:13;;;;;;;;;;;8.80;99.90;;;;;;5014699;28;19928;-78
2023/04/17 04:37:41;;;;;;;;;;;8.80;99.90;;;;;;5007411;28;20385;-72
2023/04/17 04:40:10;;;;;;;;;;;8.90;99.90;;;;;;5001773;28;19913;-72
2023/04/17 04:42:38;;;;;;;;;;;8.90;99.90;;;;;;5004122;28;19909;-71
2023/04/17 04:45:04;;;;;;;;;;;9.00;99.90;;;;;;5003391;28;19913;-71
2023/04/17 04:47:32;;;;;;;;;;;9.10;99.90;;;;;;5005262;28;20386;-72
2023/04/17 04:49:57;;;;;;;;;;;9.20;99.90;;;;;;5004088;28;19932;-72
2023/04/17 04:52:23;;;;;;;;;;;9.40;99.90;;;;;;5006945;28;19939;-72
2023/04/17 04:54:48;;;;;;;;;;;9.50;99.90;;;;;;4988742;28;19967;-72
2023/04/17 04:57:14;;;;;;;;;;;9.60;99.90;;;;;;5008312;28;19912;-73
2023/04/17 04:59:39;;;;;;;;;;;9.60;99.90;;;;;;5002988;28;19999;-73
2023/04/17 05:02:06;;;;;;;;;;;9.70;99.90;;;;;;4989297;28;19949;-74
2023/04/17 05:04:33;;;;;;;;;;;9.60;99.90;;;;;;5002454;28;19908;-73
2023/04/17 05:06:58;;;;;;;;;;;9.50;99.90;;;;;;5007085;28;19919;-74
2023/04/17 05:09:24;;;;;;;;;;;9.40;99.90;;;;;;5009603;28;19905;-73
2023/04/17 05:11:52;;;;;;;;;;;9.40;99.90;;;;;;5007647;28;19944;-69
2023/04/17 05:14:19;;;;;;;;;;;9.40;99.90;;;;;;5005751;28;19910;-74
2023/04/17 05:16:44;;;;;;;;;;;9.60;99.90;;;;;;4987778;28;20314;-73
2023/04/17 05:19:10;;;;;;;;;;;9.80;99.90;;;;;;4989242;28;19954;-74
2023/04/17 05:21:37;;;;;;;;;;;10.10;99.90;;;;;;5009012;28;19990;-74
2023/04/17 05:24:04;;;;;;;;;;;10.30;99.90;;;;;;4989170;28;19917;-74
2023/04/17 05:26:30;;;;;;;;;;;10.50;99.90;;;;;;5006599;28;19967;-74
2023/04/17 05:28:55;;;;;;;;;;;10.70;99.90;;;;;;4992387;28;19921;-73
2023/04/17 05:31:21;;;;;;;;;;;10.80;99.90;;;;;;4985304;28;19905;-73
2023/04/17 05:33:47;;;;;;;;;;;10.90;99.90;;;;;;4998577;28;20223;-74
2023/04/17 05:36:12;;;;;;;;;;;11.00;99.90;;;;;;4997113;28;20381;-74
2023/04/17 05:38:38;;;;;;;;;;;11.30;99.90;;;;;;5001209;28;20016;-74
2023/04/17 05:41:06;;;;;;;;;;;11.50;99.90;;;;;;5008453;28;20425;-74
2023/04/17 05:43:32;;;;;;;;;;;11.70;99.90;;;;;;4988418;28;20021;-73
2023/04/17 05:46:04;;;;;;;;;;;11.50;99.90;;;;;;5003307;28;20000;-74
2023/04/17 05:48:30;;;;;;;;;;;11.30;99.90;;;;;;5007594;28;20335;-74
2023/04/17 05:50:56;;;;;;;;;;;11.40;99.90;;;;;;5005686;28;19951;-74
2023/04/17 05:53:22;;;;;;;;;;;11.60;99.90;;;;;;5003371;28;19909;-74
2023/04/17 05:55:48;;;;;;;;;;;11.80;99.90;;;;;;5010758;28;19912;-74
2023/04/17 05:58:16;;;;;;;;;;;11.70;99.90;;;;;;5004802;28;19910;-74
2023/04/17 06:00:41;;;;;;;;;;;11.70;99.90;;;;;;5010664;28;19917;-74
2023/04/17 06:03:07;;;;;;;;;;;11.70;99.90;;;;;;4990382;28;20432;-74
2023/04/17 06:05:34;;;;;;;;;;;11.80;99.90;;;;;;5011225;28;19942;-74
2023/04/17 06:08:00;;;;;;;;;;;12.00;99.90;;;;;;5007647;28;19913;-73
2023/04/17 06:10:26;;;;;;;;;;;12.00;99.90;;;;;;5002971;28;19916;-73
2023/04/17 06:12:52;;;;;;;;;;;12.30;99.90;;;;;;5008898;28;19909;-74
2023/04/17 06:15:18;;;;;;;;;;;12.60;99.90;;;;;;5010709;28;19909;-74
2023/04/17 06:17:44;;;;;;;;;;;13.00;99.90;;;;;;4996372;28;19920;-74
2023/04/17 06:20:10;;;;;;;;;;;13.40;99.90;;;;;;4986442;28;20003;-74
2023/04/17 06:22:43;;;;;;;;;;;14.30;99.90;;;;;;5008472;28;19993;-74
2023/04/17 06:25:08;;;;;;;;;;;16.70;99.90;;;;;;5008885;28;19955;-74
2023/04/17 06:27:34;;;;;;;;;;;18.90;99.90;;;;;;4991668;28;19913;-74
2023/04/17 06:29:59;;;;;;;;;;;20.70;96.40;;;;;;4990106;28;19927;-74
2023/04/17 06:32:25;;;;;;;;;;;22.20;89.50;;;;;;5011169;28;19913;-72
2023/04/17 06:34:52;;;;;;;;;;;23.70;79.30;;;;;;5004034;28;19910;-72
2023/04/17 06:37:17;;;;;;;;;;;25.00;71.40;;;;;;5012690;28;19920;-72
2023/04/17 06:39:43;;;;;;;;;;;24.90;70.10;;;;;;4988028;28;19905;-72
2023/04/17 06:42:08;;;;;;;;;;;25.50;66.30;;;;;;5012061;28;19940;-72
2023/04/17 06:44:34;;;;;;;;;;;26.20;63.50;;;;;;5010598;28;19967;-71
2023/04/17 06:47:04;;;;;;;;;;;26.60;61.60;;;;;;5010643;28;19971;-71
2023/04/17 06:49:32;;;;;;;;;;;26.60;60.00;;;;;;4987723;28;19910;-71
2023/04/17 06:51:59;;;;;;;;;;;27.00;59.70;;;;;;4992158;28;20011;-71
2023/04/17 06:54:25;;;;;;;;;;;27.30;58.50;;;;;;5008163;28;19913;-72
2023/04/17 06:56:50;;;;;;;;;;;28.20;57.20;;;;;;5006317;28;19911;-72
2023/04/17 06:59:16;;;;;;;;;;;28.40;56.40;;;;;;5010269;28;19995;-71
2023/04/17 07:01:42;;;;;;;;;;;28.70;54.50;;;;;;5004541;28;19909;-72
2023/04/17 07:04:08;;;;;;;;;;;29.20;53.60;;;;;;5009213;28;19955;-72
2023/04/17 07:06:35;;;;;;;;;;;29.80;53.50;;;;;;5005734;28;19909;-72
2023/04/17 07:09:01;;;;;;;;;;;28.90;53.30;;;;;;4988443;28;19909;-71
2023/04/17 07:11:26;;;;;;;;;;;29.10;52.70;;;;;;5010995;28;19963;-72
2023/04/17 07:13:52;;;;;;;;;;;28.90;53.30;;;;;;5006865;28;20282;-71
2023/04/17 07:16:17;;;;;;;;;;;29.20;52.30;;;;;;5008186;28;19971;-72
2023/04/17 07:18:43;;;;;;;;;;;28.80;51.80;;;;;;5014634;28;19905;-71
2023/04/17 07:21:09;;;;;;;;;;;29.50;52.00;;;;;;5007666;28;19912;-72
2023/04/17 07:23:35;;;;;;;;;;;29.50;51.80;;;;;;5012498;28;19909;-71
2023/04/17 07:26:01;;;;;;;;;;;29.50;52.20;;;;;;5010560;28;19995;-72
2023/04/17 07:28:28;;;;;;;;;;;29.40;51.00;;;;;;5004336;28;19917;-72
2023/04/17 07:30:56;;;;;;;;;;;29.60;50.90;;;;;;5007537;28;19909;-72
2023/04/17 07:33:23;;;;;;;;;;;29.70;50.50;;;;;;5007786;28;19996;-71
2023/04/17 07:35:49;;;;;;;;;;;29.00;50.60;;;;;;5002386;28;19909;-72
2023/04/17 07:38:14;;;;;;;;;;;28.60;50.80;;;;;;5008298;28;20048;-71
2023/04/17 07:40:40;;;;;;;;;;;28.00;51.30;;;;;;4985420;28;19909;-72
2023/04/17 07:43:06;;;;;;;;;;;28.00;51.70;;;;;;4986286;28;20051;-71
2023/04/17 07:45:32;;;;;;;;;;;28.30;51.70;;;;;;5006479;28;19941;-72
2023/04/17 07:47:58;;;;;;;;;;;28.50;51.30;;;;;;4999587;28;19913;-71
2023/04/17 07:50:23;;;;;;;;;;;28.40;50.90;;;;;;4985816;28;19909;-72
2023/04/17 07:52:49;;;;;;;;;;;28.00;51.10;;;;;;4995127;28;20371;-71
2023/04/17 07:55:15;;;;;;;;;;;27.90;51.00;;;;;;5012634;28;20563;-72
2023/04/17 07:57:42;;;;;;;;;;;27.90;51.60;;;;;;4983100;28;19913;-72
2023/04/17 08:00:12;;;;;;;;;;;27.90;51.20;;;;;;5006277;28;19905;-71
2023/04/17 08:02:38;;;;;;;;;;;28.20;50.50;;;;;;5009848;28;19995;-71
2023/04/17 08:05:05;;;;;;;;;;;28.50;50.20;;;;;;4985045;28;20024;-71
2023/04/17 08:07:31;;;;;;;;;;;28.80;49.80;;;;;;4992976;28;19913;-71
2023/04/17 08:09:56;;;;;;;;;;;29.10;49.90;;;;;;4990836;28;19917;-71
2023/04/17 08:12:22;;;;;;;;;;;29.60;49.70;;;;;;5004198;28;19944;-71
2023/04/17 08:14:47;;;;;;;;;;;29.70;50.30;;;;;;4993425;28;19909;-74
2023/04/17 08:17:14;;;;;;;;;;;29.60;49.40;;;;;;4991937;28;20004;-74
2023/04/17 08:19:40;;;;;;;;;;;29.80;49.20;;;;;;4990846;28;19960;-72
2023/04/17 08:22:06;;;;;;;;;;;29.80;48.90;;;;;;4991687;28;20565;-72
2023/04/17 08:24:31;;;;;;;;;;;29.90;49.50;;;;;;5003084;28;20597;-74
2023/04/17 08:26:57;;;;;;;;;;;30.00;49.50;;;;;;5000378;28;19913;-74
2023/04/17 08:29:23;;;;;;;;;;;30.20;48.70;;;;;;4989908;28;19963;-72
2023/04/17 08:31:48;;;;;;;;;;;30.30;49.30;;;;;;5010936;28;19909;-72
2023/04/17 08:34:17;;;;;;;;;;;30.30;48.60;;;;;;4990822;28;20011;-72
2023/04/17 08:36:43;;;;;;;;;;;29.90;48.20;;;;;;5006860;28;19909;-71
2023/04/17 08:39:10;;;;;;;;;;;29.90;48.10;;;;;;5007796;28;19924;-72
2023/04/17 08:41:49;;;;;;;;;;;29.90;48.10;;;;;;5006484;28;19913;-71
2023/04/17 08:44:18;;;;;;;;;;;30.30;48.10;;;;;;4995302;28;19913;-71
2023/04/17 08:46:44;;;;;;;;;;;30.50;47.60;;;;;;5008109;28;19909;-72
2023/04/17 08:49:09;;;;;;;;;;;29.80;48.30;;;;;;5005546;28;19912;-72
2023/04/17 08:51:35;;;;;;;;;;;30.00;48.00;;;;;;5004212;28;19913;-72
2023/04/17 08:54:00;;;;;;;;;;;30.80;48.10;;;;;;5010354;28;19987;-71
2023/04/17 08:56:27;;;;;;;;;;;31.80;47.80;;;;;;4987420;28;20414;-72
2023/04/17 08:58:53;;;;;;;;;;;32.20;46.70;;;;;;4988476;28;20373;-72
2023/04/17 09:01:20;;;;;;;;;;;32.70;46.20;;;;;;5005044;28;19906;-72
2023/04/17 09:03:47;;;;;;;;;;;33.70;45.80;;;;;;4993003;28;20381;-71
2023/04/17 09:06:13;;;;;;;;;;;34.60;44.80;;;;;;5004066;28;19917;-72
2023/04/17 09:08:52;;;;;;;;;;;34.00;44.10;;;;;;5011713;28;19913;-71
2023/04/17 09:11:18;;;;;;;;;;;33.30;45.20;;;;;;5010312;28;19927;-72
2023/04/17 09:13:43;;;;;;;;;;;34.00;45.40;;;;;;4989036;28;20298;-72
2023/04/17 09:16:20;;;;;;;;;;;33.80;44.40;;;;;;5004537;28;20043;-72
2023/04/17 09:19:03;;;;;;;;;;;32.90;44.00;;;;;;5010140;28;19909;-72
2023/04/17 09:21:31;;;;;;;;;;;33.30;44.40;;;;;;5008961;28;19909;-72
2023/04/17 09:23:58;;;;;;;;;;;33.50;44.10;;;;;;5008267;28;19913;-72
2023/04/17 09:26:29;;;;;;;;;;;33.10;44.20;;;;;;4989969;28;19909;-72
2023/04/17 09:29:06;;;;;;;;;;;33.60;44.80;;;;;;4987463;28;19926;-74
2023/04/17 09:31:33;;;;;;;;;;;32.30;45.20;;;;;;5005114;28;19909;-74
2023/04/17 09:33:59;;;;;;;;;;;32.70;44.60;;;;;;5004076;28;20643;-74
2023/04/17 09:36:26;;;;;;;;;;;33.40;44.80;;;;;;5009322;28;19912;-73
2023/04/17 09:38:52;;;;;;;;;;;33.20;44.50;;;;;;4990002;28;19924;-72
2023/04/17 09:41:24;;;;;;;;;;;32.40;44.60;;;;;;5012107;28;19909;-71
2023/04/17 09:43:52;;;;;;;;;;;32.60;44.80;;;;;;5004627;28;19909;-72
2023/04/17 09:46:37;;;;;;;;;;;32.60;45.00;;;;;;5010287;28;20119;-74
2023/04/17 09:49:08;;;;;;;;;;;32.60;45.10;;;;;;5020451;28;19959;-72
2023/04/17 09:51:34;;;;;;;;;;;32.80;45.30;;;;;;5013443;28;20239;-72
2023/04/17 09:54:04;;;;;;;;;;;32.10;45.20;;;;;;5005984;28;19913;-72
2023/04/17 09:56:32;;;;;;;;;;;32.20;46.10;;;;;;4992963;28;19914;-72
2023/04/17 09:59:01;;;;;;;;;;;31.40;46.00;;;;;;4995028;28;19905;-72
2023/04/17 10:01:29;;;;;;;;;;;31.60;46.30;;;;;;5009670;28;19956;-74
2023/04/17 10:03:55;;;;;;;;;;;32.10;46.40;;;;;;5013237;28;19914;-71
2023/04/17 10:06:20;;;;;;;;;;;31.20;46.10;;;;;;4992732;28;19906;-72
2023/04/17 10:08:48;;;;;;;;;;;30.70;47.00;;;;;;5007832;28;20542;-72
2023/04/17 10:11:14;;;;;;;;;;;30.90;47.50;;;;;;4994722;28;19913;-72
2023/04/17 10:13:41;;;;;;;;;;;30.90;47.10;;;;;;4996227;28;19912;-72
2023/04/17 10:16:07;;;;;;;;;;;31.40;47.30;;;;;;4991131;28;20043;-74
2023/04/17 10:18:33;;;;;;;;;;;32.10;46.80;;;;;;5014403;28;19943;-74
2023/04/17 10:21:18;;;;;;;;;;;32.20;46.00;;;;;;4994046;28;20711;-74
2023/04/17 10:23:43;;;;;;;;;;;32.70;45.70;;;;;;5012067;28;20266;-72
2023/04/17 10:26:28;;;;;;;;;;;32.00;45.00;;;;;;5010619;28;19912;-74
2023/04/17 10:28:56;;;;;;;;;;;32.10;46.70;;;;;;4995919;28;19916;-74
2023/04/17 10:31:22;;;;;;;;;;;32.60;46.10;;;;;;4992277;28;19944;-74
2023/04/17 10:33:49;;;;;;;;;;;32.80;46.50;;;;;;4982924;28;19945;-72
2023/04/17 10:36:38;;;;;;;;;;;33.10;46.20;;;;;;5009140;28;19913;-74
2023/04/17 10:39:17;;;;;;;;;;;31.10;46.20;;;;;;4991979;28;19952;-74
2023/04/17 10:42:01;;;;;;;;;;;31.00;46.80;;;;;;4992152;28;19905;-74
2023/04/17 10:44:32;;;;;;;;;;;31.50;47.10;;;;;;5014980;28;19928;-74
2023/04/17 10:47:03;;;;;;;;;;;31.70;47.10;;;;;;4991897;28;20649;-74
2023/04/17 10:49:45;;;;;;;;;;;31.70;46.90;;;;;;4991014;28;20375;-74
2023/04/17 10:52:30;;;;;;;;;;;31.50;47.00;;;;;;5011667;28;19943;-71
2023/04/17 10:55:03;;;;;;;;;;;31.10;47.70;;;;;;5012740;28;19936;-74
2023/04/17 10:57:48;;;;;;;;;;;31.90;47.40;;;;;;5004128;28;19913;-73
2023/04/17 11:00:14;;;;;;;;;;;31.10;47.10;;;;;;5019994;28;19943;-72
2023/04/17 11:02:44;;;;;;;;;;;29.50;48.50;;;;;;5011833;28;19940;-73
2023/04/17 11:05:11;;;;;;;;;;;27.50;50.80;;;;;;5013918;28;19913;-71
2023/04/17 11:07:37;;;;;;;;;;;26.10;53.00;;;;;;5006001;28;20714;-71
2023/04/17 11:10:06;;;;;;;;;;;25.00;54.10;;;;;;4985960;28;19959;-71
2023/04/17 11:12:31;;;;;;;;;;;24.50;56.00;;;;;;4990332;28;19910;-73
2023/04/17 11:15:01;;;;;;;;;;;24.00;56.50;;;;;;5005892;28;20433;-73
2023/04/17 11:17:28;;;;;;;;;;;23.80;57.60;;;;;;5008088;28;19971;-73
2023/04/17 11:19:55;;;;;;;;;;;23.40;56.90;;;;;;4987451;28;19940;-73
2023/04/17 11:22:21;;;;;;;;;;;23.10;57.80;;;;;;5004658;28;19905;-73
2023/04/17 11:24:49;;;;;;;;;;;23.10;58.80;;;;;;5009176;28;19909;-73
2023/04/17 11:27:14;;;;;;;;;;;22.70;59.50;;;;;;5007031;28;20267;-73
2023/04/17 11:29:40;;;;;;;;;;;22.30;60.10;;;;;;4986568;28;19909;-73
2023/04/17 11:32:09;;;;;;;;;;;22.30;60.80;;;;;;5003112;28;20537;-73
2023/04/17 11:34:35;;;;;;;;;;;22.00;61.20;;;;;;5003733;28;19909;-73
2023/04/17 11:37:02;;;;;;;;;;;22.10;62.70;;;;;;5003214;28;19913;-73
2023/04/17 11:39:30;;;;;;;;;;;22.40;60.50;;;;;;4993753;28;20887;-73
2023/04/17 11:41:57;;;;;;;;;;;22.10;60.90;;;;;;5008120;28;19944;-73
2023/04/17 11:44:23;;;;;;;;;;;22.20;61.60;;;;;;4998879;28;20000;-73
2023/04/17 11:46:52;;;;;;;;;;;22.40;62.30;;;;;;5007352;28;20009;-73
2023/04/17 11:49:25;;;;;;;;;;;22.40;62.30;;;;;;5009272;28;20267;-73
2023/04/17 11:51:51;;;;;;;;;;;22.50;62.30;;;;;;4981815;28;19959;-73
2023/04/17 11:54:26;;;;;;;;;;;22.10;62.40;;;;;;4989616;28;19913;-73
2023/04/17 12:02:31;;;;;;;;;;;21.90;62.60;;;;;;4986064;28;19920;-73
2023/04/17 12:05:11;;;;;;;;;;;22.20;63.40;;;;;;4976390;28;19914;-73
2023/04/17 12:07:38;;;;;;;;;;;22.70;62.40;;;;;;4989757;28;19960;-73
2023/04/17 12:10:06;;;;;;;;;;;22.80;60.50;;;;;;4986831;28;19913;-73
2023/04/17 12:12:33;;;;;;;;;;;23.10;60.30;;;;;;4988241;28;20810;-73
2023/04/17 12:14:59;;;;;;;;;;;23.10;60.90;;;;;;4986239;28;19969;-73
2023/04/17 12:17:26;;;;;;;;;;;22.60;61.50;;;;;;4973940;28;19913;-73
2023/04/17 12:19:54;;;;;;;;;;;21.90;62.30;;;;;;4988098;28;19928;-73
2023/04/17 12:22:20;;;;;;;;;;;21.60;63.40;;;;;;4985430;28;19906;-73
2023/04/17 12:24:46;;;;;;;;;;;21.60;64.90;;;;;;4989783;28;20016;-73
2023/04/17 12:27:11;;;;;;;;;;;21.70;65.00;;;;;;4988300;28;19905;-73
2023/04/17 12:29:38;;;;;;;;;;;21.50;65.10;;;;;;4987275;28;19912;-73
2023/04/17 12:32:03;;;;;;;;;;;21.60;65.90;;;;;;4988719;28;19964;-73
2023/04/17 12:34:29;;;;;;;;;;;21.40;66.30;;;;;;4974873;28;19917;-73
2023/04/17 12:36:55;;;;;;;;;;;21.20;67.40;;;;;;4976995;28;19918;-73
2023/04/17 12:39:22;;;;;;;;;;;21.30;68.60;;;;;;4989522;28;20501;-73
2023/04/17 12:41:49;;;;;;;;;;;21.30;68.50;;;;;;4987940;28;19941;-73
2023/04/17 12:44:14;;;;;;;;;;;21.30;68.00;;;;;;4972916;28;20464;-73
2023/04/17 12:46:40;;;;;;;;;;;21.10;67.90;;;;;;4977772;28;19906;-76
2023/04/17 12:49:06;;;;;;;;;;;20.90;69.00;;;;;;4982289;28;19964;-76
2023/04/17 12:51:36;;;;;;;;;;;21.10;69.40;;;;;;4981620;28;19905;-73
2023/04/17 12:54:02;;;;;;;;;;;21.30;69.00;;;;;;4988894;28;19987;-74
2023/04/17 12:56:28;;;;;;;;;;;21.40;68.50;;;;;;4973866;28;19906;-74
2023/04/17 12:58:53;;;;;;;;;;;21.40;67.90;;;;;;4979673;28;19943;-73
2023/04/17 13:01:19;;;;;;;;;;;21.40;68.30;;;;;;4978456;28;20338;-73
2023/04/17 13:03:46;;;;;;;;;;;21.20;69.00;;;;;;4982651;28;20004;-74
2023/04/17 13:06:14;;;;;;;;;;;21.00;69.50;;;;;;4974466;28;19906;-74
2023/04/17 13:08:40;;;;;;;;;;;20.70;70.10;;;;;;4981376;28;19996;-73
2023/04/17 13:11:08;;;;;;;;;;;20.90;70.90;;;;;;4986755;28;20036;-74
2023/04/17 13:13:33;;;;;;;;;;;21.00;70.00;;;;;;4986481;28;19913;-73
2023/04/17 13:15:59;;;;;;;;;;;20.80;70.20;;;;;;4983909;28;19972;-73
2023/04/17 13:18:25;;;;;;;;;;;20.70;71.10;;;;;;4975970;28;19905;-73
2023/04/17 13:20:52;;;;;;;;;;;20.80;71.40;;;;;;4992202;28;19955;-73
2023/04/17 13:23:20;;;;;;;;;;;21.00;72.00;;;;;;4987878;28;19906;-75
2023/04/17 13:25:46;;;;;;;;;;;20.90;72.10;;;;;;4987519;28;19913;-75
2023/04/17 13:28:12;;;;;;;;;;;20.90;72.80;;;;;;4992006;28;20318;-75
2023/04/17 13:30:39;;;;;;;;;;;20.60;72.50;;;;;;4980585;28;19917;-75
2023/04/17 13:33:04;;;;;;;;;;;20.20;73.40;;;;;;4986311;28;19905;-75
2023/04/17 13:35:30;;;;;;;;;;;20.10;74.50;;;;;;4986318;28;19964;-75
2023/04/17 13:38:01;;;;;;;;;;;20.10;74.80;;;;;;4981934;28;19955;-75
2023/04/17 13:40:27;;;;;;;;;;;20.20;75.70;;;;;;4990544;28;20454;-75
2023/04/17 13:42:53;;;;;;;;;;;20.10;76.40;;;;;;4977826;28;19945;-74
2023/04/17 13:45:20;;;;;;;;;;;19.90;77.90;;;;;;4991679;28;20032;-74
2023/04/17 13:47:45;;;;;;;;;;;19.60;79.40;;;;;;4987386;28;19913;-73
2023/04/17 13:50:11;;;;;;;;;;;19.10;81.40;;;;;;4987844;28;19982;-74
2023/04/17 13:52:36;;;;;;;;;;;18.70;85.00;;;;;;4990310;28;19909;-74
2023/04/17 13:55:02;;;;;;;;;;;18.50;90.40;;;;;;4974643;28;19957;-74
2023/04/17 13:57:28;;;;;;;;;;;18.50;92.40;;;;;;4985839;28;20589;-74
2023/04/17 13:59:53;;;;;;;;;;;18.60;93.40;;;;;;4986444;28;20005;-74
2023/04/17 14:02:20;;;;;;;;;;;18.50;94.20;;;;;;4977128;28;19905;-73
2023/04/17 14:04:45;;;;;;;;;;;18.60;95.50;;;;;;4988573;28;20381;-75
2023/04/17 14:07:14;;;;;;;;;;;18.80;95.80;;;;;;4988052;28;19909;-73
2023/04/17 14:09:39;;;;;;;;;;;19.00;95.80;;;;;;4987294;28;19988;-73
2023/04/17 14:12:05;;;;;;;;;;;19.10;95.90;;;;;;4983576;28;20013;-74
2023/04/17 14:14:30;;;;;;;;;;;19.10;96.20;;;;;;4972901;28;20367;-74
2023/04/17 14:17:01;;;;;;;;;;;19.10;96.20;;;;;;4988498;28;19910;-73
2023/04/17 14:19:27;;;;;;;;;;;18.90;96.50;;;;;;4982247;28;19910;-73
2023/04/17 14:21:52;;;;;;;;;;;18.70;96.80;;;;;;4975266;28;19909;-73
2023/04/17 14:24:18;;;;;;;;;;;18.90;97.00;;;;;;4972707;28;19993;-74
2023/04/17 14:26:43;;;;;;;;;;;18.90;96.90;;;;;;4991298;28;19910;-74